sensor_id;sensor_type;location;lat;lon;timestamp;pressure;altitude;pressure_sealevel;temperature;humidity
45255;BME280;30989;52.078;21.014;2023-02-19T00:01:13;164169.91;;;1.60;100.00
45255;BME280;30989;52.078;21.014;2023-02-19T00:03:38;164191.22;;;1.69;100.00
45255;BME280;30989;52.078;21.014;2023-02-19T00:06:06;164203.19;;;1.73;100.00
45255;BME280;30989;52.078;21.014;2023-02-19T00:08:33;164215.19;;;1.78;100.00
45255;BME280;30989;52.078;21.014;2023-02-19T00:11:06;164225.81;;;1.82;100.00
45255;BME280;30989;52.078;21.014;2023-02-19T00:13:37;164240.47;;;1.87;100.00
45255;BME280;30989;52.078;21.014;2023-02-19T00:16:07;164252.47;;;1.92;100.00
45255;BME280;30989;52.078;21.014;2023-02-19T00:18:33;164248.47;;;1.90;100.00
45255;BME280;30989;52.078;21.014;2023-02-19T00:20:58;164265.78;;;1.97;100.00
45255;BME280;30989;52.078;21.014;2023-02-19T00:23:24;164271.09;;;1.99;100.00
45255;BME280;30989;52.078;21.014;2023-02-19T00:25:49;164281.75;;;2.03;100.00
45255;BME280;30989;52.078;21.014;2023-02-19T00:28:15;164279.09;;;2.02;100.00
45255;BME280;30989;52.078;21.014;2023-02-19T00:30:40;164285.75;;;2.05;100.00
45255;BME280;30989;52.078;21.014;2023-02-19T00:33:05;164279.09;;;2.02;100.00
45255;BME280;30989;52.078;21.014;2023-02-19T00:35:36;164297.72;;;2.09;100.00
45255;BME280;30989;52.078;21.014;2023-02-19T00:38:01;164300.38;;;2.10;100.00
45255;BME280;30989;52.078;21.014;2023-02-19T00:40:27;164307.06;;;2.13;100.00
45255;BME280;30989;52.078;21.014;2023-02-19T00:42:53;164295.06;;;2.08;100.00
45255;BME280;30989;52.078;21.014;2023-02-19T00:45:18;164295.06;;;2.08;100.00
45255;BME280;30989;52.078;21.014;2023-02-19T00:47:43;164309.72;;;2.14;100.00
45255;BME280;30989;52.078;21.014;2023-02-19T00:50:10;164313.72;;;2.15;100.00
45255;BME280;30989;52.078;21.014;2023-02-19T00:52:35;164311.06;;;2.14;100.00
45255;BME280;30989;52.078;21.014;2023-02-19T00:55:01;164300.38;;;2.10;100.00
45255;BME280;30989;52.078;21.014;2023-02-19T00:57:26;164309.72;;;2.14;100.00
45255;BME280;30989;52.078;21.014;2023-02-19T00:59:52;164311.06;;;2.14;100.00
45255;BME280;30989;52.078;21.014;2023-02-19T01:02:17;164300.38;;;2.10;100.00
45255;BME280;30989;52.078;21.014;2023-02-19T01:04:43;164317.72;;;2.17;100.00
45255;BME280;30989;52.078;21.014;2023-02-19T01:07:08;164317.72;;;2.17;100.00
45255;BME280;30989;52.078;21.014;2023-02-19T01:09:35;164313.72;;;2.15;100.00
45255;BME280;30989;52.078;21.014;2023-02-19T01:12:00;164316.38;;;2.16;100.00
45255;BME280;30989;52.078;21.014;2023-02-19T01:14:26;164325.69;;;2.20;100.00
45255;BME280;30989;52.078;21.014;2023-02-19T01:16:51;164321.69;;;2.18;100.00
45255;BME280;30989;52.078;21.014;2023-02-19T01:19:17;164327.03;;;2.20;100.00
45255;BME280;30989;52.078;21.014;2023-02-19T01:21:42;164319.03;;;2.17;100.00
45255;BME280;30989;52.078;21.014;2023-02-19T01:24:09;164325.69;;;2.20;100.00
45255;BME280;30989;52.078;21.014;2023-02-19T01:26:34;164324.38;;;2.19;100.00
45255;BME280;30989;52.078;21.014;2023-02-19T01:29:01;164325.69;;;2.20;100.00
45255;BME280;30989;52.078;21.014;2023-02-19T01:31:28;164335.00;;;2.23;100.00
45255;BME280;30989;52.078;21.014;2023-02-19T01:33:58;164337.69;;;2.24;100.00
45255;BME280;30989;52.078;21.014;2023-02-19T01:36:24;164340.34;;;2.25;100.00
45255;BME280;30989;52.078;21.014;2023-02-19T01:38:50;164335.00;;;2.23;100.00
45255;BME280;30989;52.078;21.014;2023-02-19T01:41:19;164331.03;;;2.22;100.00
45255;BME280;30989;52.078;21.014;2023-02-19T01:46:29;164325.69;;;2.20;100.00
45255;BME280;30989;52.078;21.014;2023-02-19T01:48:58;164301.72;;;2.11;100.00
45255;BME280;30989;52.078;21.014;2023-02-19T01:51:25;164319.03;;;2.17;100.00
45255;BME280;30989;52.078;21.014;2023-02-19T01:53:54;164323.03;;;2.19;100.00
45255;BME280;30989;52.078;21.014;2023-02-19T01:56:22;164319.03;;;2.17;100.00
45255;BME280;30989;52.078;21.014;2023-02-19T01:58:49;164320.38;;;2.18;100.00
45255;BME280;30989;52.078;21.014;2023-02-19T02:01:15;164311.06;;;2.14;100.00
45255;BME280;30989;52.078;21.014;2023-02-19T02:03:44;164321.69;;;2.18;100.00
45255;BME280;30989;52.078;21.014;2023-02-19T02:06:23;164319.03;;;2.17;100.00
45255;BME280;30989;52.078;21.014;2023-02-19T02:08:54;164320.38;;;2.18;100.00
45255;BME280;30989;52.078;21.014;2023-02-19T02:11:43;164311.06;;;2.14;100.00
45255;BME280;30989;52.078;21.014;2023-02-19T02:14:09;164303.06;;;2.11;100.00
45255;BME280;30989;52.078;21.014;2023-02-19T02:22:27;164295.06;;;2.08;100.00
45255;BME280;30989;52.078;21.014;2023-02-19T02:27:52;164308.38;;;2.13;100.00
45255;BME280;30989;52.078;21.014;2023-02-19T02:35:52;164267.09;;;1.98;100.00
45255;BME280;30989;52.078;21.014;2023-02-19T02:38:23;164291.06;;;2.07;100.00
45255;BME280;30989;52.078;21.014;2023-02-19T02:40:52;164305.72;;;2.12;100.00
45255;BME280;30989;52.078;21.014;2023-02-19T02:43:18;164301.72;;;2.11;100.00
45255;BME280;30989;52.078;21.014;2023-02-19T02:45:43;164299.06;;;2.10;100.00
45255;BME280;30989;52.078;21.014;2023-02-19T02:48:33;164300.38;;;2.10;100.00
45255;BME280;30989;52.078;21.014;2023-02-19T02:51:09;164277.75;;;2.02;100.00
45255;BME280;30989;52.078;21.014;2023-02-19T02:56:53;164281.75;;;2.03;100.00
45255;BME280;30989;52.078;21.014;2023-02-19T02:59:22;164289.75;;;2.06;100.00
45255;BME280;30989;52.078;21.014;2023-02-19T03:02:13;164276.41;;;2.01;100.00
45255;BME280;30989;52.078;21.014;2023-02-19T03:05:05;164287.06;;;2.05;100.00
45255;BME280;30989;52.078;21.014;2023-02-19T03:08:03;164284.41;;;2.04;100.00
45255;BME280;30989;52.078;21.014;2023-02-19T03:10:40;164289.75;;;2.06;100.00
45255;BME280;30989;52.078;21.014;2023-02-19T03:13:14;164288.41;;;2.06;100.00
45255;BME280;30989;52.078;21.014;2023-02-19T03:16:05;164264.44;;;1.97;100.00
45255;BME280;30989;52.078;21.014;2023-02-19T03:18:53;164284.41;;;2.04;100.00
45255;BME280;30989;52.078;21.014;2023-02-19T03:21:39;164281.75;;;2.03;100.00
45255;BME280;30989;52.078;21.014;2023-02-19T03:24:09;164279.09;;;2.02;100.00
45255;BME280;30989;52.078;21.014;2023-02-19T03:26:55;164283.09;;;2.04;100.00
45255;BME280;30989;52.078;21.014;2023-02-19T03:29:26;164279.09;;;2.02;100.00
45255;BME280;30989;52.078;21.014;2023-02-19T03:32:04;164275.09;;;2.01;100.00
45255;BME280;30989;52.078;21.014;2023-02-19T03:34:40;164279.09;;;2.02;100.00
45255;BME280;30989;52.078;21.014;2023-02-19T03:37:13;164279.09;;;2.02;100.00
45255;BME280;30989;52.078;21.014;2023-02-19T03:39:40;164272.44;;;2.00;100.00
45255;BME280;30989;52.078;21.014;2023-02-19T03:53:41;164280.41;;;2.03;100.00
45255;BME280;30989;52.078;21.014;2023-02-19T03:56:37;164283.09;;;2.04;100.00
45255;BME280;30989;52.078;21.014;2023-02-19T03:59:12;164257.78;;;1.94;100.00
45255;BME280;30989;52.078;21.014;2023-02-19T04:02:05;164273.75;;;2.00;100.00
45255;BME280;30989;52.078;21.014;2023-02-19T04:04:44;164265.78;;;1.97;100.00
45255;BME280;30989;52.078;21.014;2023-02-19T04:07:13;164268.44;;;1.98;100.00
45255;BME280;30989;52.078;21.014;2023-02-19T04:09:43;164268.44;;;1.98;100.00
45255;BME280;30989;52.078;21.014;2023-02-19T04:12:16;164263.09;;;1.96;100.00
45255;BME280;30989;52.078;21.014;2023-02-19T04:14:51;164265.78;;;1.97;100.00
45255;BME280;30989;52.078;21.014;2023-02-19T04:17:28;164265.78;;;1.97;100.00
45255;BME280;30989;52.078;21.014;2023-02-19T04:19:58;164263.09;;;1.96;100.00
45255;BME280;30989;52.078;21.014;2023-02-19T04:22:26;164267.09;;;1.98;100.00
45255;BME280;30989;52.078;21.014;2023-02-19T04:24:53;164259.13;;;1.94;100.00
45255;BME280;30989;52.078;21.014;2023-02-19T04:27:20;164261.78;;;1.96;100.00
45255;BME280;30989;52.078;21.014;2023-02-19T04:29:45;164253.78;;;1.92;100.00
45255;BME280;30989;52.078;21.014;2023-02-19T04:32:11;164253.78;;;1.92;100.00
45255;BME280;30989;52.078;21.014;2023-02-19T04:34:37;164244.47;;;1.89;100.00
45255;BME280;30989;52.078;21.014;2023-02-19T04:37:03;164249.78;;;1.91;100.00
45255;BME280;30989;52.078;21.014;2023-02-19T04:39:29;164241.81;;;1.88;100.00
45255;BME280;30989;52.078;21.014;2023-02-19T04:41:54;164247.13;;;1.90;100.00
45255;BME280;30989;52.078;21.014;2023-02-19T04:44:20;164244.47;;;1.89;100.00
45255;BME280;30989;52.078;21.014;2023-02-19T04:46:46;164239.13;;;1.87;100.00
45255;BME280;30989;52.078;21.014;2023-02-19T04:49:11;164241.81;;;1.88;100.00
45255;BME280;30989;52.078;21.014;2023-02-19T04:51:38;164239.13;;;1.87;100.00
45255;BME280;30989;52.078;21.014;2023-02-19T04:54:03;164231.16;;;1.84;100.00
45255;BME280;30989;52.078;21.014;2023-02-19T04:56:29;164225.81;;;1.82;100.00
45255;BME280;30989;52.078;21.014;2023-02-19T04:58:55;164215.19;;;1.78;100.00
45255;BME280;30989;52.078;21.014;2023-02-19T05:01:20;164212.50;;;1.77;100.00
45255;BME280;30989;52.078;21.014;2023-02-19T05:03:45;164209.84;;;1.76;100.00
45255;BME280;30989;52.078;21.014;2023-02-19T05:06:12;164207.19;;;1.75;100.00
45255;BME280;30989;52.078;21.014;2023-02-19T05:08:38;164208.50;;;1.75;100.00
45255;BME280;30989;52.078;21.014;2023-02-19T05:11:06;164204.53;;;1.74;100.00
45255;BME280;30989;52.078;21.014;2023-02-19T05:13:32;164200.53;;;1.72;100.00
45255;BME280;30989;52.078;21.014;2023-02-19T05:16:00;164199.19;;;1.72;100.00
45255;BME280;30989;52.078;21.014;2023-02-19T05:18:27;164188.56;;;1.68;100.00
45255;BME280;30989;52.078;21.014;2023-02-19T05:20:52;164191.22;;;1.69;100.00
45255;BME280;30989;52.078;21.014;2023-02-19T05:23:19;164193.88;;;1.70;100.00
45255;BME280;30989;52.078;21.014;2023-02-19T05:25:45;164187.22;;;1.67;100.00
45255;BME280;30989;52.078;21.014;2023-02-19T05:28:11;164185.88;;;1.67;100.00
45255;BME280;30989;52.078;21.014;2023-02-19T05:33:09;164196.53;;;1.71;100.00
45255;BME280;30989;52.078;21.014;2023-02-19T05:35:42;164193.88;;;1.70;100.00
45255;BME280;30989;52.078;21.014;2023-02-19T05:38:09;164203.19;;;1.73;100.00
45255;BME280;30989;52.078;21.014;2023-02-19T05:40:35;164203.19;;;1.73;100.00
45255;BME280;30989;52.078;21.014;2023-02-19T05:43:01;164205.84;;;1.74;100.00
45255;BME280;30989;52.078;21.014;2023-02-19T05:45:26;164200.53;;;1.72;100.00
45255;BME280;30989;52.078;21.014;2023-02-19T05:47:51;164183.22;;;1.66;100.00
45255;BME280;30989;52.078;21.014;2023-02-19T05:50:17;164183.22;;;1.66;100.00
45255;BME280;30989;52.078;21.014;2023-02-19T05:52:42;164188.56;;;1.68;100.00
45255;BME280;30989;52.078;21.014;2023-02-19T05:55:09;164199.19;;;1.72;100.00
45255;BME280;30989;52.078;21.014;2023-02-19T05:57:43;164204.53;;;1.74;100.00
45255;BME280;30989;52.078;21.014;2023-02-19T06:00:10;164207.19;;;1.75;100.00
45255;BME280;30989;52.078;21.014;2023-02-19T06:02:38;164181.91;;;1.65;100.00
45255;BME280;30989;52.078;21.014;2023-02-19T06:05:05;164209.84;;;1.76;100.00
45255;BME280;30989;52.078;21.014;2023-02-19T06:07:32;164212.50;;;1.77;100.00
45255;BME280;30989;52.078;21.014;2023-02-19T06:09:57;164216.50;;;1.78;100.00
45255;BME280;30989;52.078;21.014;2023-02-19T06:12:23;164215.19;;;1.78;100.00
45255;BME280;30989;52.078;21.014;2023-02-19T06:14:48;164217.84;;;1.79;100.00
45255;BME280;30989;52.078;21.014;2023-02-19T06:17:14;164219.16;;;1.79;100.00
45255;BME280;30989;52.078;21.014;2023-02-19T06:19:40;164228.50;;;1.83;100.00
45255;BME280;30989;52.078;21.014;2023-02-19T06:22:05;164224.50;;;1.81;100.00
45255;BME280;30989;52.078;21.014;2023-02-19T06:24:31;164228.50;;;1.83;100.00
45255;BME280;30989;52.078;21.014;2023-02-19T06:26:56;164240.47;;;1.87;100.00
45255;BME280;30989;52.078;21.014;2023-02-19T06:29:23;164248.47;;;1.90;100.00
45255;BME280;30989;52.078;21.014;2023-02-19T06:31:48;164244.47;;;1.89;100.00
45255;BME280;30989;52.078;21.014;2023-02-19T06:34:14;164248.47;;;1.90;100.00
45255;BME280;30989;52.078;21.014;2023-02-19T06:36:39;164235.16;;;1.85;100.00
45255;BME280;30989;52.078;21.014;2023-02-19T06:39:05;164247.13;;;1.90;100.00
45255;BME280;30989;52.078;21.014;2023-02-19T06:41:30;164255.13;;;1.93;100.00
45255;BME280;30989;52.078;21.014;2023-02-19T06:43:58;164257.78;;;1.94;100.00
45255;BME280;30989;52.078;21.014;2023-02-19T06:46:24;164247.13;;;1.90;100.00
45255;BME280;30989;52.078;21.014;2023-02-19T06:48:50;164255.13;;;1.93;100.00
45255;BME280;30989;52.078;21.014;2023-02-19T06:51:17;164271.09;;;1.99;100.00
45255;BME280;30989;52.078;21.014;2023-02-19T06:53:44;164273.75;;;2.00;100.00
45255;BME280;30989;52.078;21.014;2023-02-19T06:56:27;164277.75;;;2.02;100.00
45255;BME280;30989;52.078;21.014;2023-02-19T06:58:55;164276.41;;;2.01;100.00
45255;BME280;30989;52.078;21.014;2023-02-19T07:01:22;164271.09;;;1.99;100.00
45255;BME280;30989;52.078;21.014;2023-02-19T07:03:48;164272.44;;;2.00;100.00
45255;BME280;30989;52.078;21.014;2023-02-19T07:06:14;164272.44;;;2.00;100.00
45255;BME280;30989;52.078;21.014;2023-02-19T07:08:39;164279.09;;;2.02;100.00
45255;BME280;30989;52.078;21.014;2023-02-19T07:11:04;164276.41;;;2.01;100.00
45255;BME280;30989;52.078;21.014;2023-02-19T07:13:30;164288.41;;;2.06;100.00
45255;BME280;30989;52.078;21.014;2023-02-19T07:16:00;164299.06;;;2.10;100.00
45255;BME280;30989;52.078;21.014;2023-02-19T07:18:26;164301.72;;;2.11;100.00
45255;BME280;30989;52.078;21.014;2023-02-19T07:20:51;164305.72;;;2.12;100.00
45255;BME280;30989;52.078;21.014;2023-02-19T07:23:17;164313.72;;;2.15;100.00
45255;BME280;30989;52.078;21.014;2023-02-19T07:25:42;164283.09;;;2.04;100.00
45255;BME280;30989;52.078;21.014;2023-02-19T07:28:08;164305.72;;;2.12;100.00
45255;BME280;30989;52.078;21.014;2023-02-19T07:30:33;164309.72;;;2.14;100.00
45255;BME280;30989;52.078;21.014;2023-02-19T07:32:59;164300.38;;;2.10;100.00
45255;BME280;30989;52.078;21.014;2023-02-19T07:35:25;164316.38;;;2.16;100.00
45255;BME280;30989;52.078;21.014;2023-02-19T07:37:51;164325.69;;;2.20;100.00
45255;BME280;30989;52.078;21.014;2023-02-19T07:40:16;164320.38;;;2.18;100.00
45255;BME280;30989;52.078;21.014;2023-02-19T07:42:42;164339.00;;;2.25;100.00
45255;BME280;30989;52.078;21.014;2023-02-19T07:45:07;164343.00;;;2.26;100.00
45255;BME280;30989;52.078;21.014;2023-02-19T07:47:33;164366.97;;;2.36;100.00
45255;BME280;30989;52.078;21.014;2023-02-19T07:49:58;164398.94;;;2.48;100.00
45255;BME280;30989;52.078;21.014;2023-02-19T07:52:23;164402.94;;;2.49;100.00
45255;BME280;30989;52.078;21.014;2023-02-19T07:54:49;164397.63;;;2.47;100.00
45255;BME280;30989;52.078;21.014;2023-02-19T07:57:14;164389.63;;;2.44;100.00
45255;BME280;30989;52.078;21.014;2023-02-19T07:59:40;164382.97;;;2.42;100.00
45255;BME280;30989;52.078;21.014;2023-02-19T08:02:17;164388.28;;;2.44;100.00
45255;BME280;30989;52.078;21.014;2023-02-19T08:05:01;164396.28;;;2.47;100.00
45255;BME280;30989;52.078;21.014;2023-02-19T08:07:31;164396.28;;;2.47;100.00
45255;BME280;30989;52.078;21.014;2023-02-19T08:09:57;164398.94;;;2.48;100.00
45255;BME280;30989;52.078;21.014;2023-02-19T08:12:41;164396.28;;;2.47;100.00
45255;BME280;30989;52.078;21.014;2023-02-19T08:15:25;164396.28;;;2.47;100.00
45255;BME280;30989;52.078;21.014;2023-02-19T08:17:51;164396.28;;;2.47;100.00
45255;BME280;30989;52.078;21.014;2023-02-19T08:20:16;164390.97;;;2.45;100.00
45255;BME280;30989;52.078;21.014;2023-02-19T08:22:41;164417.59;;;2.55;100.00
45255;BME280;30989;52.078;21.014;2023-02-19T08:25:07;164414.94;;;2.54;100.00
45255;BME280;30989;52.078;21.014;2023-02-19T08:27:33;164432.25;;;2.61;100.00
45255;BME280;30989;52.078;21.014;2023-02-19T08:29:58;164442.91;;;2.65;100.00
45255;BME280;30989;52.078;21.014;2023-02-19T08:32:23;164452.25;;;2.68;100.00
45255;BME280;30989;52.078;21.014;2023-02-19T08:34:49;164472.22;;;2.76;100.00
45255;BME280;30989;52.078;21.014;2023-02-19T08:37:14;164462.91;;;2.72;100.00
45255;BME280;30989;52.078;21.014;2023-02-19T08:39:40;164452.25;;;2.68;100.00
45255;BME280;30989;52.078;21.014;2023-02-19T08:42:05;164454.91;;;2.69;100.00
45255;BME280;30989;52.078;21.014;2023-02-19T08:44:31;164465.56;;;2.73;100.00
45255;BME280;30989;52.078;21.014;2023-02-19T08:46:57;164456.22;;;2.70;100.00
45255;BME280;30989;52.078;21.014;2023-02-19T08:49:25;164458.91;;;2.71;100.00
45255;BME280;30989;52.078;21.014;2023-02-19T08:51:51;164508.19;;;2.89;100.00
45255;BME280;30989;52.078;21.014;2023-02-19T08:54:16;164524.19;;;2.96;100.00
45255;BME280;30989;52.078;21.014;2023-02-19T08:56:42;164556.16;;;3.08;100.00
45255;BME280;30989;52.078;21.014;2023-02-19T08:59:08;164544.16;;;3.03;100.00
45255;BME280;30989;52.078;21.014;2023-02-19T09:01:33;164576.16;;;3.15;100.00
45255;BME280;30989;52.078;21.014;2023-02-19T09:03:59;164577.50;;;3.16;100.00
45255;BME280;30989;52.078;21.014;2023-02-19T09:06:24;164613.47;;;3.30;100.00
45255;BME280;30989;52.078;21.014;2023-02-19T09:08:50;164602.81;;;3.26;100.00
45255;BME280;30989;52.078;21.014;2023-02-19T09:11:15;164629.47;;;3.36;100.00
45255;BME280;30989;52.078;21.014;2023-02-19T09:13:42;164609.47;;;3.28;100.00
45255;BME280;30989;52.078;21.014;2023-02-19T09:16:08;164616.13;;;3.31;100.00
45255;BME280;30989;52.078;21.014;2023-02-19T09:18:33;164610.81;;;3.29;100.00
45255;BME280;30989;52.078;21.014;2023-02-19T09:21:04;164612.13;;;3.29;100.00
45255;BME280;30989;52.078;21.014;2023-02-19T09:23:33;164606.81;;;3.27;100.00
45255;BME280;30989;52.078;21.014;2023-02-19T09:26:00;164598.81;;;3.24;100.00
45255;BME280;30989;52.078;21.014;2023-02-19T09:28:26;164581.47;;;3.17;100.00
45255;BME280;30989;52.078;21.014;2023-02-19T09:30:52;164569.50;;;3.13;100.00
45255;BME280;30989;52.078;21.014;2023-02-19T09:33:17;164569.50;;;3.13;100.00
45255;BME280;30989;52.078;21.014;2023-02-19T09:35:43;164572.16;;;3.14;100.00
45255;BME280;30989;52.078;21.014;2023-02-19T09:38:08;164569.50;;;3.13;100.00
45255;BME280;30989;52.078;21.014;2023-02-19T09:40:38;164566.81;;;3.12;100.00
45255;BME280;30989;52.078;21.014;2023-02-19T09:43:10;164568.16;;;3.12;100.00
45255;BME280;30989;52.078;21.014;2023-02-19T09:45:37;164589.47;;;3.20;100.00
45255;BME280;30989;52.078;21.014;2023-02-19T09:48:04;164610.81;;;3.29;100.00
45255;BME280;30989;52.078;21.014;2023-02-19T09:50:33;164640.13;;;3.40;100.00
45255;BME280;30989;52.078;21.014;2023-02-19T09:53:03;164661.44;;;3.48;100.00
45255;BME280;30989;52.078;21.014;2023-02-19T09:55:34;164677.44;;;3.54;100.00
45255;BME280;30989;52.078;21.014;2023-02-19T09:58:07;164710.78;;;3.67;100.00
45255;BME280;30989;52.078;21.014;2023-02-19T10:00:38;164768.09;;;3.88;100.00
45255;BME280;30989;52.078;21.014;2023-02-19T10:03:19;164802.78;;;4.02;100.00
45255;BME280;30989;52.078;21.014;2023-02-19T10:05:46;164841.44;;;4.16;100.00
45255;BME280;30989;52.078;21.014;2023-02-19T10:08:16;164833.44;;;4.13;98.21
45255;BME280;30989;52.078;21.014;2023-02-19T10:10:43;164801.44;;;4.01;98.43
45255;BME280;30989;52.078;21.014;2023-02-19T10:13:20;164761.44;;;3.86;99.11
45255;BME280;30989;52.078;21.014;2023-02-19T10:15:53;164728.09;;;3.73;98.75
45255;BME280;30989;52.078;21.014;2023-02-19T10:18:25;164697.44;;;3.62;100.00
45255;BME280;30989;52.078;21.014;2023-02-19T10:20:55;164670.78;;;3.51;99.44
45255;BME280;30989;52.078;21.014;2023-02-19T10:23:21;164665.47;;;3.49;100.00
45255;BME280;30989;52.078;21.014;2023-02-19T10:25:53;164673.44;;;3.52;100.00
45255;BME280;30989;52.078;21.014;2023-02-19T10:28:24;164694.78;;;3.61;100.00
45255;BME280;30989;52.078;21.014;2023-02-19T10:30:54;164718.78;;;3.70;99.94
45255;BME280;30989;52.078;21.014;2023-02-19T10:33:20;164721.44;;;3.71;99.08
45255;BME280;30989;52.078;21.014;2023-02-19T10:36:04;164745.44;;;3.80;98.70
45255;BME280;30989;52.078;21.014;2023-02-19T10:38:39;164754.78;;;3.83;98.36
45255;BME280;30989;52.078;21.014;2023-02-19T10:41:14;164774.78;;;3.91;98.85
45255;BME280;30989;52.078;21.014;2023-02-19T10:43:48;164785.44;;;3.95;97.47
45255;BME280;30989;52.078;21.014;2023-02-19T10:46:27;164810.78;;;4.05;98.11
45255;BME280;30989;52.078;21.014;2023-02-19T10:48:58;164837.44;;;4.15;94.83
45255;BME280;30989;52.078;21.014;2023-02-19T10:54:24;165092.25;;;5.12;92.18
45255;BME280;30989;52.078;21.014;2023-02-19T10:56:52;165280.53;;;5.83;92.35
45255;BME280;30989;52.078;21.014;2023-02-19T10:59:26;165308.59;;;5.94;87.12
45255;BME280;30989;52.078;21.014;2023-02-19T11:04:25;165191.06;;;5.49;87.77
45255;BME280;30989;52.078;21.014;2023-02-19T11:06:52;165121.66;;;5.23;86.84
45255;BME280;30989;52.078;21.014;2023-02-19T11:09:30;165028.22;;;4.88;87.44
45255;BME280;30989;52.078;21.014;2023-02-19T11:11:58;165016.19;;;4.83;87.18
45255;BME280;30989;52.078;21.014;2023-02-19T11:14:25;165017.53;;;4.83;85.94
45255;BME280;30989;52.078;21.014;2023-02-19T11:16:56;165001.53;;;4.77;87.48
45255;BME280;30989;52.078;21.014;2023-02-19T11:19:33;164961.50;;;4.62;85.27
45255;BME280;30989;52.078;21.014;2023-02-19T11:22:01;164929.47;;;4.50;86.50
45255;BME280;30989;52.078;21.014;2023-02-19T11:24:36;164902.81;;;4.40;87.13
45255;BME280;30989;52.078;21.014;2023-02-19T11:27:04;164884.13;;;4.33;89.46
45255;BME280;30989;52.078;21.014;2023-02-19T11:29:31;164905.47;;;4.41;90.11
45255;BME280;30989;52.078;21.014;2023-02-19T11:32:28;164984.19;;;4.71;88.24
45255;BME280;30989;52.078;21.014;2023-02-19T11:35:19;165235.13;;;5.66;88.42
45255;BME280;30989;52.078;21.014;2023-02-19T11:38:00;165448.84;;;6.47;85.90
45255;BME280;30989;52.078;21.014;2023-02-19T11:57:37;165028.22;;;4.88;84.17
45255;BME280;30989;52.078;21.014;2023-02-19T12:00:34;165049.56;;;4.96;86.08
45255;BME280;30989;52.078;21.014;2023-02-19T12:03:19;165128.34;;;5.26;87.63
45255;BME280;30989;52.078;21.014;2023-02-19T12:08:40;165252.47;;;5.73;82.85
45255;BME280;30989;52.078;21.014;2023-02-19T12:11:24;165217.78;;;5.60;81.38
45255;BME280;30989;52.078;21.014;2023-02-19T12:16:59;165081.59;;;5.08;81.50
45255;BME280;30989;52.078;21.014;2023-02-19T12:19:50;165022.88;;;4.85;80.87
45255;BME280;30989;52.078;21.014;2023-02-19T12:22:28;164982.84;;;4.70;82.77
45255;BME280;30989;52.078;21.014;2023-02-19T12:30:43;165098.94;;;5.14;81.61
45255;BME280;30989;52.078;21.014;2023-02-19T12:36:10;165232.44;;;5.65;80.35
45255;BME280;30989;52.078;21.014;2023-02-19T12:44:40;165193.75;;;5.50;79.44
45255;BME280;30989;52.078;21.014;2023-02-19T12:47:20;165159.03;;;5.37;78.83
45255;BME280;30989;52.078;21.014;2023-02-19T12:49:51;165129.69;;;5.26;78.38
45255;BME280;30989;52.078;21.014;2023-02-19T12:52:27;165148.34;;;5.33;79.33
45255;BME280;30989;52.078;21.014;2023-02-19T12:55:02;165272.50;;;5.80;77.42
45255;BME280;30989;52.078;21.014;2023-02-19T12:57:32;165458.19;;;6.51;75.63
45255;BME280;30989;52.078;21.014;2023-02-19T13:00:00;165643.91;;;7.22;75.77
45255;BME280;30989;52.078;21.014;2023-02-19T13:02:42;165835.06;;;7.94;73.98
45255;BME280;30989;52.078;21.014;2023-02-19T13:05:20;165986.22;;;8.52;72.59
45255;BME280;30989;52.078;21.014;2023-02-19T13:12:52;165907.25;;;8.22;64.67
45255;BME280;30989;52.078;21.014;2023-02-19T13:15:39;165712.06;;;7.48;65.61
45255;BME280;30989;52.078;21.014;2023-02-19T13:21:07;165342.00;;;6.07;69.10
45255;BME280;30989;52.078;21.014;2023-02-19T13:23:39;165239.13;;;5.68;72.13
45255;BME280;30989;52.078;21.014;2023-02-19T13:26:39;165248.47;;;5.71;75.09
45255;BME280;30989;52.078;21.014;2023-02-19T13:32:19;165338.00;;;6.05;71.69
45255;BME280;30989;52.078;21.014;2023-02-19T13:37:35;165187.06;;;5.48;74.24
45255;BME280;30989;52.078;21.014;2023-02-19T13:40:05;165164.38;;;5.39;75.24
45255;BME280;30989;52.078;21.014;2023-02-19T13:42:50;165132.34;;;5.27;75.50
45255;BME280;30989;52.078;21.014;2023-02-19T13:45:21;165105.59;;;5.17;76.79
45255;BME280;30989;52.078;21.014;2023-02-19T13:50:25;165034.88;;;4.90;77.52
45255;BME280;30989;52.078;21.014;2023-02-19T13:52:56;164986.84;;;4.72;77.39
45255;BME280;30989;52.078;21.014;2023-02-19T14:00:59;164878.78;;;4.31;80.61
45255;BME280;30989;52.078;21.014;2023-02-19T14:03:52;164921.47;;;4.47;79.82
45255;BME280;30989;52.078;21.014;2023-02-19T14:06:18;164894.81;;;4.37;77.74
45255;BME280;30989;52.078;21.014;2023-02-19T14:14:33;164849.44;;;4.19;79.24
45255;BME280;30989;52.078;21.014;2023-02-19T14:17:03;164838.78;;;4.15;78.28
45255;BME280;30989;52.078;21.014;2023-02-19T14:30:27;164925.47;;;4.48;78.64
45255;BME280;30989;52.078;21.014;2023-02-19T14:32:53;164929.47;;;4.50;79.57
45255;BME280;30989;52.078;21.014;2023-02-19T14:35:21;164937.47;;;4.53;78.62
45255;BME280;30989;52.078;21.014;2023-02-19T14:37:48;164972.16;;;4.66;79.71
45255;BME280;30989;52.078;21.014;2023-02-19T14:40:21;165004.19;;;4.78;80.23
45255;BME280;30989;52.078;21.014;2023-02-19T14:42:48;165012.19;;;4.81;78.83
45255;BME280;30989;52.078;21.014;2023-02-19T14:45:18;165006.84;;;4.79;78.61
45255;BME280;30989;52.078;21.014;2023-02-19T14:47:45;165000.19;;;4.77;77.72
45255;BME280;30989;52.078;21.014;2023-02-19T14:50:27;164980.19;;;4.69;77.74
45255;BME280;30989;52.078;21.014;2023-02-19T14:52:56;164972.16;;;4.66;77.63